Karin S — V2BM6 — position and weather

sailwx.info

Track history (hours):
 
Tides and Currents Weather Stations Pressure Air Temp Water Temp Dewpoint Dewpoint Depression Visibility Wind Speed Wind Dir Waves Ship Positions

Karin S

Last reported at 2017-Jan-16 10:32 UTC. Time now 2017-Jan-20 22:10 UTC.
Position N 39°46' E 003°48'.

Length 141 m; draft 8.7 m.

Type: Cargo ship. MMSI: 304871000.

Date/timePositionNaut miles runAvg speedWind from/ knotsBaromVisibWave heightAir tempDewpointWater temp
2017-Jan-16 10:32N 39°46' E 003°48'1211.4
2017-Jan-16 09:27N 39°56' E 003°37'2611.1
2017-Jan-16 07:03N 40°16' E 003°16'611.1
2017-Jan-16 06:33N 40°21' E 003°11'1211.4
2017-Jan-16 05:33N 40°30' E 003°01'1211.6
2017-Jan-16 04:33N 40°39' E 002°52'1211.7
2017-Jan-16 03:33N 40°48' E 002°42'1111.5
2017-Jan-16 02:33N 40°57' E 002°33'1211.6
2017-Jan-16 01:32N 41°06' E 002°23'31 2.1
2017-Jan-15 10:18N 40°49' E 001°48'810.2
2017-Jan-15 09:33N 40°42' E 001°42'1010.0
2017-Jan-15 08:33N 40°34' E 001°35'10 9.7
2017-Jan-15 07:33N 40°26' E 001°28'1110.6
2017-Jan-15 06:33N 40°17' E 001°21'1211.7
2017-Jan-15 05:32N 40°07' E 001°12'1212.3
2017-Jan-15 04:33N 39°57' E 001°04'6011.6
2017-Jan-14 23:25N 39°29' W 000°05'1012.0
2017-Jan-14 22:33N 39°26' W 000°18'1 1.3
2017-Jan-14 21:32N 39°26' W 000°19'0 0.0
2017-Jan-14 20:31N 39°26' W 000°19'0 0.0
2017-Jan-14 19:33N 39°26' W 000°19'0 0.0
2017-Jan-14 18:33N 39°26' W 000°19'0 0.0
2017-Jan-14 17:30N 39°26' W 000°19'0 0.0
2017-Jan-14 16:33N 39°26' W 000°19'0 0.0
2017-Jan-14 15:32N 39°26' W 000°19'0 0.0
2017-Jan-14 14:33N 39°26' W 000°19'0 0.0
2017-Jan-14 13:33N 39°26' W 000°19'0 0.0
2017-Jan-14 12:33N 39°26' W 000°19'2 2.0
2017-Jan-14 11:32N 39°25' W 000°17'83 6.9
2017-Jan-13 23:33N 39°13' E 001°28'1110.6
2017-Jan-13 22:34N 39°09' E 001°41'1010.4
2017-Jan-13 21:33N 39°06' E 001°54'1010.4
2017-Jan-13 20:33N 39°01' E 002°06'1010.1
2017-Jan-13 19:33N 38°57' E 002°18'10 9.6
2017-Jan-13 18:33N 38°54' E 002°29'10 9.7
2017-Jan-13 17:33N 38°50' E 002°41'1010.3
2017-Jan-13 16:33N 38°46' E 002°53'10 9.6
2017-Jan-13 15:33N 38°42' E 003°04'10 9.5
2017-Jan-13 14:33N 38°38' E 003°15'  
2017-Jan-08 07:27N 39°51' E 003°43'3511.9
2017-Jan-08 04:31N 40°18' E 003°14'1111.6
2017-Jan-08 03:33N 40°27' E 003°05'1211.9
2017-Jan-08 02:33N 40°36' E 002°55'1211.9
2017-Jan-08 01:33N 40°45' E 002°45'1211.9
2017-Jan-08 00:33N 40°54' E 002°35'1212.0
2017-Jan-07 23:33N 41°03' E 002°25'1211.8
2017-Jan-07 22:32N 41°13' E 002°15'8 2.2
2017-Jan-07 19:11N 41°19' E 002°09'2 0.4
2017-Jan-07 12:32N 41°17' E 002°11'2711.3
2017-Jan-07 10:08N 40°54' E 001°52'711.6
2017-Jan-07 09:32N 40°48' E 001°47'1611.9
2017-Jan-07 08:09N 40°34' E 001°35'711.5
2017-Jan-07 07:33N 40°28' E 001°30'1211.6
2017-Jan-07 06:33N 40°19' E 001°22'1211.6
2017-Jan-07 05:33N 40°09' E 001°14'1212.1
2017-Jan-07 04:33N 39°59' E 001°05'6211.3
2017-Jan-06 23:06N 39°29' W 000°05'712.0
2017-Jan-06 22:33N 39°26' W 000°13'5 1.4
2017-Jan-06 19:14N 39°26' W 000°19'0 0.0
2017-Jan-06 18:14N 39°26' W 000°19'0 0.0
2017-Jan-06 17:32N 39°26' W 000°19'0 0.0
2017-Jan-06 16:29N 39°26' W 000°19'0 0.0
2017-Jan-06 15:32N 39°26' W 000°19'0 0.0
2017-Jan-06 14:32N 39°26' W 000°19'0 0.0
2017-Jan-06 13:26N 39°26' W 000°19'0 0.0
2017-Jan-06 12:32N 39°26' W 000°19'0 0.0
2017-Jan-06 11:23N 39°26' W 000°19'  
Track history (hours):
 
Tides and Currents Weather Stations Pressure Air Temp Water Temp Dewpoint Dewpoint Depression Visibility Wind Speed Wind Dir Waves Ship Positions

Karin S

Last reported at 2017-Jan-16 10:32 UTC. Time now 2017-Jan-20 22:10 UTC.
Position N 39°46' E 003°48'.

Length 141 m; draft 8.7 m.

Type: Cargo ship. MMSI: 304871000.

Date/timePositionNaut miles runAvg speedWind from/ knotsBaromVisibWave heightAir tempDewpointWater temp
2017-Jan-16 10:32N 39°46' E 003°48'1211.4
2017-Jan-16 09:27N 39°56' E 003°37'2611.1
2017-Jan-16 07:03N 40°16' E 003°16'611.1
2017-Jan-16 06:33N 40°21' E 003°11'1211.4
2017-Jan-16 05:33N 40°30' E 003°01'1211.6
2017-Jan-16 04:33N 40°39' E 002°52'1211.7
2017-Jan-16 03:33N 40°48' E 002°42'1111.5
2017-Jan-16 02:33N 40°57' E 002°33'1211.6
2017-Jan-16 01:32N 41°06' E 002°23'31 2.1
2017-Jan-15 10:18N 40°49' E 001°48'810.2
2017-Jan-15 09:33N 40°42' E 001°42'1010.0
2017-Jan-15 08:33N 40°34' E 001°35'10 9.7
2017-Jan-15 07:33N 40°26' E 001°28'1110.6
2017-Jan-15 06:33N 40°17' E 001°21'1211.7
2017-Jan-15 05:32N 40°07' E 001°12'1212.3
2017-Jan-15 04:33N 39°57' E 001°04'6011.6
2017-Jan-14 23:25N 39°29' W 000°05'1012.0
2017-Jan-14 22:33N 39°26' W 000°18'1 1.3
2017-Jan-14 21:32N 39°26' W 000°19'0 0.0
2017-Jan-14 20:31N 39°26' W 000°19'0 0.0
2017-Jan-14 19:33N 39°26' W 000°19'0 0.0
2017-Jan-14 18:33N 39°26' W 000°19'0 0.0
2017-Jan-14 17:30N 39°26' W 000°19'0 0.0
2017-Jan-14 16:33N 39°26' W 000°19'0 0.0
2017-Jan-14 15:32N 39°26' W 000°19'0 0.0
2017-Jan-14 14:33N 39°26' W 000°19'0 0.0
2017-Jan-14 13:33N 39°26' W 000°19'0 0.0
2017-Jan-14 12:33N 39°26' W 000°19'2 2.0
2017-Jan-14 11:32N 39°25' W 000°17'83 6.9
2017-Jan-13 23:33N 39°13' E 001°28'1110.6
2017-Jan-13 22:34N 39°09' E 001°41'1010.4
2017-Jan-13 21:33N 39°06' E 001°54'1010.4
2017-Jan-13 20:33N 39°01' E 002°06'1010.1
2017-Jan-13 19:33N 38°57' E 002°18'10 9.6
2017-Jan-13 18:33N 38°54' E 002°29'10 9.7
2017-Jan-13 17:33N 38°50' E 002°41'1010.3
2017-Jan-13 16:33N 38°46' E 002°53'10 9.6
2017-Jan-13 15:33N 38°42' E 003°04'10 9.5
2017-Jan-13 14:33N 38°38' E 003°15'  
2017-Jan-08 07:27N 39°51' E 003°43'3511.9
2017-Jan-08 04:31N 40°18' E 003°14'1111.6
2017-Jan-08 03:33N 40°27' E 003°05'1211.9
2017-Jan-08 02:33N 40°36' E 002°55'1211.9
2017-Jan-08 01:33N 40°45' E 002°45'1211.9
2017-Jan-08 00:33N 40°54' E 002°35'1212.0
2017-Jan-07 23:33N 41°03' E 002°25'1211.8
2017-Jan-07 22:32N 41°13' E 002°15'8 2.2
2017-Jan-07 19:11N 41°19' E 002°09'2 0.4
2017-Jan-07 12:32N 41°17' E 002°11'2711.3
2017-Jan-07 10:08N 40°54' E 001°52'711.6
2017-Jan-07 09:32N 40°48' E 001°47'1611.9
2017-Jan-07 08:09N 40°34' E 001°35'711.5
2017-Jan-07 07:33N 40°28' E 001°30'1211.6
2017-Jan-07 06:33N 40°19' E 001°22'1211.6
2017-Jan-07 05:33N 40°09' E 001°14'1212.1
2017-Jan-07 04:33N 39°59' E 001°05'6211.3
2017-Jan-06 23:06N 39°29' W 000°05'712.0
2017-Jan-06 22:33N 39°26' W 000°13'5 1.4
2017-Jan-06 19:14N 39°26' W 000°19'0 0.0
2017-Jan-06 18:14N 39°26' W 000°19'0 0.0
2017-Jan-06 17:32N 39°26' W 000°19'0 0.0
2017-Jan-06 16:29N 39°26' W 000°19'0 0.0
2017-Jan-06 15:32N 39°26' W 000°19'0 0.0
2017-Jan-06 14:32N 39°26' W 000°19'0 0.0
2017-Jan-06 13:26N 39°26' W 000°19'0 0.0
2017-Jan-06 12:32N 39°26' W 000°19'0 0.0
2017-Jan-06 11:23N 39°26' W 000°19'  

Dump ship's entire track history